cloudbaseCUmx2.php :- Version MX_2.1.1 - 21-Jul-2020 - copyright 2020 Silver Acorn Weather
Date/Time :- Thu, 26 Nov 2020 22:55:57 (Night)
Time Zone :- Australia/Hobart (GMT+11 hours)

INPUT ITEM: RAW DATA -> DERIVED
    Current temp :- 15.2 °C
    Dewpoint :- 11.0 °C
    Rain Fall :- 0.0 mm
    Barometer :- 01019 hPa
    Humidity :- 76 %
    Wind Speed :- 7.1 km/h
    Wind Dir :- 115115 degrees
    Cloud Altitude :- 524538.18536585366 m (ASL)
    Latitude :- -41.428889 S = Southern Hemisphere
    Season :- Spring
    Moon Age :- 11 days
    Is daylight :- 0=Night
    Tag file time Interval :- 55 Minutes

CUMULUS CONDITIONS - Metar Times UTC, Update Station times based on timezone setting
    Cumulus conditions not in use
    Zambretti # :- 1 1

METAR CONDITONS - Metar Times UTC, Update Station times based on timezone setting
    $pathToMetFile :- ./cache/
    Metar - Rawdata :- 2020/11/26 11:30 YMLT 261130Z AUTO 16005KT 9999 // NCD 12/07 Q1017 RF00.0/000.0
    Metar - Trimmed :- 261130Z AUTO 16005KT 9999 NCD 12/07 Q1017 RF00.0/000.0
    Metar - Decoded :- Not Raining; Sunny
    Now :- 1606391757 seconds
    Metar report timestamp :- 1606390200 seconds
    Age of File :- 25.95 minutes
    When to update Metar :- 1606223340 seconds (When station time ~ 00:09:00 (adjust for daylight saving )
        (Metar report timestamp plus 39 mins refresh time)
    Next Download in : -2806.95 Minutes (if  '-' then refresh page, if still '-' then download overdue!)
    Metar file :- New File downloaded
    Note:- Metar updates are usually Hourly unless AUTO when they may update every 30 minutes

OUTPUT DATA

    $showAGL / ASL :- true
Cloud Temp :- 10 °C
Background image file name :- ./images/cb/cb-bg-00sprn.png
    $useWXrain :- true
    $tagint :- 5
    Last rain :- 3652 minutes ago
    $wxrain :- false
"useWXrain" results :-
    No rain in last 5 minutes :- Not raining
Moon Image (cbmoon.png) created @ :- 22:55:57

SETTINGS
    $time :- 22:55 on 26 November 2020
    $ICAO :- YMLT
    $pathToMetFile :- ./cache/
    $tz :- Australia/Hobart
    $pathToImages :- ./images/cb/
    $pathToMoonImage :- ./images/cb/
    $srcmoonimgdir :- ./images/moonmx/
    $switchSeasons :- true
    $showCldSource :- true
    $showCloudTemp :- true
    $showCaption :- true
    $showMoon :- true
    $showScale :- true
    $showWinsock :- false
    $showWindDir :- false
    $showWindSpd :- false
    $showTemp :- false
    $showHumidity :- false
    $showBaro :- false
    $alwaysShowCloud :- true
    $useCUHeight :- false
    $getMetar :- true
    $metarRefresh :- true
    $useMetarAtNight :- true
    $onlyUseMetar :- true
    $reportMistAt < :- 25 m
    $reportFogAt < :- 10 m
    $stationAltitude :- 18 m ASL